sensor_id;sensor_type;location;lat;lon;timestamp;temperature;humidity
26164;DHT22;13914;48.178;11.716;2022-09-27T00:00:36;11.30;84.50
26164;DHT22;13914;48.178;11.716;2022-09-27T00:03:02;11.30;84.70
26164;DHT22;13914;48.178;11.716;2022-09-27T00:05:29;11.30;84.60
26164;DHT22;13914;48.178;11.716;2022-09-27T00:07:55;11.30;84.60
26164;DHT22;13914;48.178;11.716;2022-09-27T00:10:21;11.30;84.60
26164;DHT22;13914;48.178;11.716;2022-09-27T00:12:47;11.20;84.60
26164;DHT22;13914;48.178;11.716;2022-09-27T00:15:13;11.30;84.80
26164;DHT22;13914;48.178;11.716;2022-09-27T00:17:39;11.30;84.70
26164;DHT22;13914;48.178;11.716;2022-09-27T00:20:07;11.20;84.60
26164;DHT22;13914;48.178;11.716;2022-09-27T00:22:33;11.20;84.70
26164;DHT22;13914;48.178;11.716;2022-09-27T00:24:59;11.20;84.80
26164;DHT22;13914;48.178;11.716;2022-09-27T00:27:26;11.20;84.80
26164;DHT22;13914;48.178;11.716;2022-09-27T00:29:52;11.20;84.80
26164;DHT22;13914;48.178;11.716;2022-09-27T00:32:18;11.20;84.90
26164;DHT22;13914;48.178;11.716;2022-09-27T00:34:44;11.20;84.80
26164;DHT22;13914;48.178;11.716;2022-09-27T00:37:10;11.20;84.70
26164;DHT22;13914;48.178;11.716;2022-09-27T00:39:37;11.20;84.90
26164;DHT22;13914;48.178;11.716;2022-09-27T00:42:10;11.20;84.90
26164;DHT22;13914;48.178;11.716;2022-09-27T00:47:13;11.10;84.80
26164;DHT22;13914;48.178;11.716;2022-09-27T00:49:53;11.20;84.90
26164;DHT22;13914;48.178;11.716;2022-09-27T00:53:12;11.10;84.90
26164;DHT22;13914;48.178;11.716;2022-09-27T00:55:52;11.10;84.90
26164;DHT22;13914;48.178;11.716;2022-09-27T00:58:24;11.10;85.00
26164;DHT22;13914;48.178;11.716;2022-09-27T01:00:58;11.10;85.00
26164;DHT22;13914;48.178;11.716;2022-09-27T01:03:41;11.10;85.10
26164;DHT22;13914;48.178;11.716;2022-09-27T01:06:10;11.10;85.10
26164;DHT22;13914;48.178;11.716;2022-09-27T01:08:36;11.10;85.00
26164;DHT22;13914;48.178;11.716;2022-09-27T01:31:35;11.00;85.50
26164;DHT22;13914;48.178;11.716;2022-09-27T01:34:38;11.00;85.40
26164;DHT22;13914;48.178;11.716;2022-09-27T01:40:14;11.00;85.60
26164;DHT22;13914;48.178;11.716;2022-09-27T01:42:49;11.00;85.40
26164;DHT22;13914;48.178;11.716;2022-09-27T01:45:35;11.00;85.50
26164;DHT22;13914;48.178;11.716;2022-09-27T01:48:18;11.00;85.40
26164;DHT22;13914;48.178;11.716;2022-09-27T01:51:06;10.90;85.50
26164;DHT22;13914;48.178;11.716;2022-09-27T01:53:38;11.00;85.70
26164;DHT22;13914;48.178;11.716;2022-09-27T01:56:14;10.90;85.60
26164;DHT22;13914;48.178;11.716;2022-09-27T01:58:48;10.90;85.50
26164;DHT22;13914;48.178;11.716;2022-09-27T02:01:18;10.90;85.40
26164;DHT22;13914;48.178;11.716;2022-09-27T02:03:50;10.90;85.60
26164;DHT22;13914;48.178;11.716;2022-09-27T02:06:27;10.90;85.40
26164;DHT22;13914;48.178;11.716;2022-09-27T02:09:04;10.90;85.40
26164;DHT22;13914;48.178;11.716;2022-09-27T02:11:38;10.90;85.40
26164;DHT22;13914;48.178;11.716;2022-09-27T02:14:29;10.90;85.60
26164;DHT22;13914;48.178;11.716;2022-09-27T02:20:44;10.90;85.60
26164;DHT22;13914;48.178;11.716;2022-09-27T02:22:56;10.80;85.80
26164;DHT22;13914;48.178;11.716;2022-09-27T02:25:27;10.90;86.00
26164;DHT22;13914;48.178;11.716;2022-09-27T02:30:27;10.80;85.80
26164;DHT22;13914;48.178;11.716;2022-09-27T02:32:53;10.80;85.80
26164;DHT22;13914;48.178;11.716;2022-09-27T02:35:25;10.80;85.90
26164;DHT22;13914;48.178;11.716;2022-09-27T02:37:55;10.80;85.80
26164;DHT22;13914;48.178;11.716;2022-09-27T02:40:22;10.80;85.90
26164;DHT22;13914;48.178;11.716;2022-09-27T02:42:48;10.80;85.90
26164;DHT22;13914;48.178;11.716;2022-09-27T02:45:15;10.70;85.90
26164;DHT22;13914;48.178;11.716;2022-09-27T02:56:24;10.70;86.20
26164;DHT22;13914;48.178;11.716;2022-09-27T03:02:07;10.70;86.20
26164;DHT22;13914;48.178;11.716;2022-09-27T03:04:56;10.70;86.30
26164;DHT22;13914;48.178;11.716;2022-09-27T03:07:26;10.70;86.20
26164;DHT22;13914;48.178;11.716;2022-09-27T03:09:53;10.70;86.40
26164;DHT22;13914;48.178;11.716;2022-09-27T03:12:20;10.70;86.30
26164;DHT22;13914;48.178;11.716;2022-09-27T03:14:54;10.70;86.40
26164;DHT22;13914;48.178;11.716;2022-09-27T03:17:22;10.70;86.30
26164;DHT22;13914;48.178;11.716;2022-09-27T03:19:48;10.60;86.40
26164;DHT22;13914;48.178;11.716;2022-09-27T03:22:14;10.60;86.30
26164;DHT22;13914;48.178;11.716;2022-09-27T03:24:40;10.60;86.30
26164;DHT22;13914;48.178;11.716;2022-09-27T03:27:07;10.60;86.40
26164;DHT22;13914;48.178;11.716;2022-09-27T03:29:33;10.60;86.50
26164;DHT22;13914;48.178;11.716;2022-09-27T03:31:59;10.60;86.40
26164;DHT22;13914;48.178;11.716;2022-09-27T03:34:24;10.60;87.30
26164;DHT22;13914;48.178;11.716;2022-09-27T03:36:50;10.60;86.40
26164;DHT22;13914;48.178;11.716;2022-09-27T03:39:17;10.60;87.30
26164;DHT22;13914;48.178;11.716;2022-09-27T03:41:43;10.60;86.50
26164;DHT22;13914;48.178;11.716;2022-09-27T03:44:09;10.60;87.40
26164;DHT22;13914;48.178;11.716;2022-09-27T03:46:35;10.60;86.60
26164;DHT22;13914;48.178;11.716;2022-09-27T03:49:00;10.60;86.70
26164;DHT22;13914;48.178;11.716;2022-09-27T03:51:28;10.60;86.60
26164;DHT22;13914;48.178;11.716;2022-09-27T03:53:53;10.60;86.60
26164;DHT22;13914;48.178;11.716;2022-09-27T03:56:19;10.60;86.90
26164;DHT22;13914;48.178;11.716;2022-09-27T03:58:45;10.50;87.20
26164;DHT22;13914;48.178;11.716;2022-09-27T04:01:11;10.60;86.80
26164;DHT22;13914;48.178;11.716;2022-09-27T04:03:37;10.50;86.80
26164;DHT22;13914;48.178;11.716;2022-09-27T04:06:03;10.50;86.80
26164;DHT22;13914;48.178;11.716;2022-09-27T04:08:29;10.50;86.90
26164;DHT22;13914;48.178;11.716;2022-09-27T04:10:56;10.50;86.90
26164;DHT22;13914;48.178;11.716;2022-09-27T04:13:23;10.50;86.70
26164;DHT22;13914;48.178;11.716;2022-09-27T04:15:49;10.50;86.80
26164;DHT22;13914;48.178;11.716;2022-09-27T04:18:14;10.50;86.70
26164;DHT22;13914;48.178;11.716;2022-09-27T04:20:40;10.50;86.70
26164;DHT22;13914;48.178;11.716;2022-09-27T04:23:06;10.50;86.70
26164;DHT22;13914;48.178;11.716;2022-09-27T04:25:34;10.50;86.70
26164;DHT22;13914;48.178;11.716;2022-09-27T04:28:00;10.50;86.80
26164;DHT22;13914;48.178;11.716;2022-09-27T04:30:29;10.50;86.90
26164;DHT22;13914;48.178;11.716;2022-09-27T04:32:55;10.50;86.90
26164;DHT22;13914;48.178;11.716;2022-09-27T04:35:21;10.50;87.00
26164;DHT22;13914;48.178;11.716;2022-09-27T04:38:05;10.50;86.90
26164;DHT22;13914;48.178;11.716;2022-09-27T04:40:34;10.40;87.00
26164;DHT22;13914;48.178;11.716;2022-09-27T04:43:00;10.40;87.10
26164;DHT22;13914;48.178;11.716;2022-09-27T04:45:28;10.40;86.90
26164;DHT22;13914;48.178;11.716;2022-09-27T04:47:54;10.40;87.00
26164;DHT22;13914;48.178;11.716;2022-09-27T04:50:20;10.40;87.10
26164;DHT22;13914;48.178;11.716;2022-09-27T04:52:53;10.40;87.10
26164;DHT22;13914;48.178;11.716;2022-09-27T04:55:20;10.40;87.00
26164;DHT22;13914;48.178;11.716;2022-09-27T04:57:47;10.40;87.00
26164;DHT22;13914;48.178;11.716;2022-09-27T05:00:13;10.40;87.20
26164;DHT22;13914;48.178;11.716;2022-09-27T05:02:42;10.40;87.30
26164;DHT22;13914;48.178;11.716;2022-09-27T05:05:08;10.40;87.50
26164;DHT22;13914;48.178;11.716;2022-09-27T05:07:35;10.40;88.20
26164;DHT22;13914;48.178;11.716;2022-09-27T05:10:02;10.40;87.30
26164;DHT22;13914;48.178;11.716;2022-09-27T05:12:27;10.40;87.50
26164;DHT22;13914;48.178;11.716;2022-09-27T05:14:53;10.40;87.30
26164;DHT22;13914;48.178;11.716;2022-09-27T05:17:19;10.40;87.30
26164;DHT22;13914;48.178;11.716;2022-09-27T05:19:47;10.30;87.20
26164;DHT22;13914;48.178;11.716;2022-09-27T05:22:13;10.30;87.20
26164;DHT22;13914;48.178;11.716;2022-09-27T05:24:39;10.40;87.20
26164;DHT22;13914;48.178;11.716;2022-09-27T05:27:07;10.40;87.60
26164;DHT22;13914;48.178;11.716;2022-09-27T05:29:34;10.30;87.50
26164;DHT22;13914;48.178;11.716;2022-09-27T05:32:02;10.30;88.00
26164;DHT22;13914;48.178;11.716;2022-09-27T05:34:28;10.30;87.70
26164;DHT22;13914;48.178;11.716;2022-09-27T05:36:57;10.30;88.60
26164;DHT22;13914;48.178;11.716;2022-09-27T05:39:23;10.40;87.60
26164;DHT22;13914;48.178;11.716;2022-09-27T05:41:49;10.30;87.70
26164;DHT22;13914;48.178;11.716;2022-09-27T05:44:16;10.30;87.70
26164;DHT22;13914;48.178;11.716;2022-09-27T05:46:42;10.30;87.80
26164;DHT22;13914;48.178;11.716;2022-09-27T05:49:08;10.30;88.50
26164;DHT22;13914;48.178;11.716;2022-09-27T05:51:34;10.30;88.10
26164;DHT22;13914;48.178;11.716;2022-09-27T05:53:59;10.30;87.90
26164;DHT22;13914;48.178;11.716;2022-09-27T05:56:25;10.30;88.10
26164;DHT22;13914;48.178;11.716;2022-09-27T05:58:51;10.30;88.50
26164;DHT22;13914;48.178;11.716;2022-09-27T06:01:17;10.30;88.40
26164;DHT22;13914;48.178;11.716;2022-09-27T06:03:43;10.30;88.30
26164;DHT22;13914;48.178;11.716;2022-09-27T06:06:12;10.30;88.30
26164;DHT22;13914;48.178;11.716;2022-09-27T06:08:40;10.30;88.20
26164;DHT22;13914;48.178;11.716;2022-09-27T06:11:08;10.30;88.00
26164;DHT22;13914;48.178;11.716;2022-09-27T06:13:35;10.30;88.10
26164;DHT22;13914;48.178;11.716;2022-09-27T06:16:02;10.30;88.10
26164;DHT22;13914;48.178;11.716;2022-09-27T06:18:28;10.30;88.30
26164;DHT22;13914;48.178;11.716;2022-09-27T06:20:54;10.30;87.90
26164;DHT22;13914;48.178;11.716;2022-09-27T06:23:22;10.30;87.60
26164;DHT22;13914;48.178;11.716;2022-09-27T06:25:49;10.30;88.00
26164;DHT22;13914;48.178;11.716;2022-09-27T06:28:16;10.30;87.70
26164;DHT22;13914;48.178;11.716;2022-09-27T06:30:44;10.30;87.60
26164;DHT22;13914;48.178;11.716;2022-09-27T06:33:13;10.40;87.80
26164;DHT22;13914;48.178;11.716;2022-09-27T06:35:41;10.40;87.70
26164;DHT22;13914;48.178;11.716;2022-09-27T06:38:14;10.40;87.90
26164;DHT22;13914;48.178;11.716;2022-09-27T06:40:41;10.40;87.80
26164;DHT22;13914;48.178;11.716;2022-09-27T06:43:13;10.40;87.70
26164;DHT22;13914;48.178;11.716;2022-09-27T06:45:40;10.40;87.40
26164;DHT22;13914;48.178;11.716;2022-09-27T06:48:08;10.50;87.40
26164;DHT22;13914;48.178;11.716;2022-09-27T06:50:36;10.50;87.50
26164;DHT22;13914;48.178;11.716;2022-09-27T06:53:07;10.50;87.30
26164;DHT22;13914;48.178;11.716;2022-09-27T06:55:35;10.50;87.30
26164;DHT22;13914;48.178;11.716;2022-09-27T06:58:02;10.50;87.20
26164;DHT22;13914;48.178;11.716;2022-09-27T07:00:51;10.60;87.30
26164;DHT22;13914;48.178;11.716;2022-09-27T07:03:19;10.60;87.00
26164;DHT22;13914;48.178;11.716;2022-09-27T07:05:58;10.60;87.20
26164;DHT22;13914;48.178;11.716;2022-09-27T07:08:25;10.70;87.10
26164;DHT22;13914;48.178;11.716;2022-09-27T07:10:54;10.70;87.00
26164;DHT22;13914;48.178;11.716;2022-09-27T07:13:21;10.70;87.00
26164;DHT22;13914;48.178;11.716;2022-09-27T07:15:47;10.70;86.70
26164;DHT22;13914;48.178;11.716;2022-09-27T07:18:13;10.70;86.80
26164;DHT22;13914;48.178;11.716;2022-09-27T07:20:39;10.70;86.80
26164;DHT22;13914;48.178;11.716;2022-09-27T07:23:07;10.80;86.90
26164;DHT22;13914;48.178;11.716;2022-09-27T07:25:34;10.80;86.90
26164;DHT22;13914;48.178;11.716;2022-09-27T07:28:01;10.80;86.90
26164;DHT22;13914;48.178;11.716;2022-09-27T07:30:28;10.90;86.90
26164;DHT22;13914;48.178;11.716;2022-09-27T07:32:58;10.90;86.90
26164;DHT22;13914;48.178;11.716;2022-09-27T07:35:26;10.90;86.70
26164;DHT22;13914;48.178;11.716;2022-09-27T07:37:52;10.90;86.60
26164;DHT22;13914;48.178;11.716;2022-09-27T07:40:19;10.90;86.60
26164;DHT22;13914;48.178;11.716;2022-09-27T07:42:44;10.90;86.60
26164;DHT22;13914;48.178;11.716;2022-09-27T07:45:10;11.00;86.60
26164;DHT22;13914;48.178;11.716;2022-09-27T07:47:38;11.00;86.50
26164;DHT22;13914;48.178;11.716;2022-09-27T07:50:05;11.00;86.60
26164;DHT22;13914;48.178;11.716;2022-09-27T07:52:39;11.10;86.50
26164;DHT22;13914;48.178;11.716;2022-09-27T07:55:08;11.10;86.40
26164;DHT22;13914;48.178;11.716;2022-09-27T07:57:35;11.10;86.50
26164;DHT22;13914;48.178;11.716;2022-09-27T08:00:07;11.10;86.40
26164;DHT22;13914;48.178;11.716;2022-09-27T08:02:35;11.10;86.70
26164;DHT22;13914;48.178;11.716;2022-09-27T08:05:01;11.20;86.50
26164;DHT22;13914;48.178;11.716;2022-09-27T08:07:28;11.20;86.50
26164;DHT22;13914;48.178;11.716;2022-09-27T08:09:54;11.20;86.30
26164;DHT22;13914;48.178;11.716;2022-09-27T08:12:20;11.20;86.40
26164;DHT22;13914;48.178;11.716;2022-09-27T08:14:47;11.20;86.40
26164;DHT22;13914;48.178;11.716;2022-09-27T08:17:13;11.30;86.40
26164;DHT22;13914;48.178;11.716;2022-09-27T08:19:39;11.30;86.20
26164;DHT22;13914;48.178;11.716;2022-09-27T08:22:06;11.30;86.20
26164;DHT22;13914;48.178;11.716;2022-09-27T08:24:33;11.20;85.80
26164;DHT22;13914;48.178;11.716;2022-09-27T08:26:59;11.20;86.40
26164;DHT22;13914;48.178;11.716;2022-09-27T08:29:25;11.20;86.40
26164;DHT22;13914;48.178;11.716;2022-09-27T08:31:51;11.20;86.50
26164;DHT22;13914;48.178;11.716;2022-09-27T08:34:21;11.20;86.50
26164;DHT22;13914;48.178;11.716;2022-09-27T08:36:47;11.30;86.90
26164;DHT22;13914;48.178;11.716;2022-09-27T08:39:14;11.30;86.30
26164;DHT22;13914;48.178;11.716;2022-09-27T08:41:53;11.30;86.10
26164;DHT22;13914;48.178;11.716;2022-09-27T08:47:33;11.40;86.10
26164;DHT22;13914;48.178;11.716;2022-09-27T08:50:27;11.40;86.20
26164;DHT22;13914;48.178;11.716;2022-09-27T08:55:50;11.40;86.40
26164;DHT22;13914;48.178;11.716;2022-09-27T08:58:44;11.40;86.10
26164;DHT22;13914;48.178;11.716;2022-09-27T09:01:17;11.40;86.00
26164;DHT22;13914;48.178;11.716;2022-09-27T09:03:50;11.40;86.20
26164;DHT22;13914;48.178;11.716;2022-09-27T09:12:19;11.40;86.60
26164;DHT22;13914;48.178;11.716;2022-09-27T09:18:59;11.60;86.70
26164;DHT22;13914;48.178;11.716;2022-09-27T09:35:59;11.90;86.30
26164;DHT22;13914;48.178;11.716;2022-09-27T09:38:42;11.90;86.00
26164;DHT22;13914;48.178;11.716;2022-09-27T09:41:17;12.00;85.90
26164;DHT22;13914;48.178;11.716;2022-09-27T09:46:26;12.10;85.60
26164;DHT22;13914;48.178;11.716;2022-09-27T09:49:21;12.20;85.40
26164;DHT22;13914;48.178;11.716;2022-09-27T09:51:55;12.30;85.40
26164;DHT22;13914;48.178;11.716;2022-09-27T09:54:34;12.40;85.40
26164;DHT22;13914;48.178;11.716;2022-09-27T09:57:09;12.40;84.90
26164;DHT22;13914;48.178;11.716;2022-09-27T09:59:42;12.40;84.80
26164;DHT22;13914;48.178;11.716;2022-09-27T10:02:38;12.40;84.10
26164;DHT22;13914;48.178;11.716;2022-09-27T10:05:06;12.50;84.70
26164;DHT22;13914;48.178;11.716;2022-09-27T10:07:34;12.50;83.40
26164;DHT22;13914;48.178;11.716;2022-09-27T10:10:04;12.50;84.20
26164;DHT22;13914;48.178;11.716;2022-09-27T10:12:32;12.50;83.90
26164;DHT22;13914;48.178;11.716;2022-09-27T10:15:01;12.60;83.50
26164;DHT22;13914;48.178;11.716;2022-09-27T10:17:36;12.60;83.40
26164;DHT22;13914;48.178;11.716;2022-09-27T10:20:04;12.60;82.90
26164;DHT22;13914;48.178;11.716;2022-09-27T10:22:54;12.60;82.60
26164;DHT22;13914;48.178;11.716;2022-09-27T10:25:25;12.60;83.20
26164;DHT22;13914;48.178;11.716;2022-09-27T10:28:28;12.60;83.40
26164;DHT22;13914;48.178;11.716;2022-09-27T10:31:01;12.70;83.40
26164;DHT22;13914;48.178;11.716;2022-09-27T10:33:39;12.70;83.70
26164;DHT22;13914;48.178;11.716;2022-09-27T10:36:29;12.70;83.60
26164;DHT22;13914;48.178;11.716;2022-09-27T10:38:59;12.70;83.70
26164;DHT22;13914;48.178;11.716;2022-09-27T10:41:41;12.70;83.60
26164;DHT22;13914;48.178;11.716;2022-09-27T10:46:49;12.70;83.40
26164;DHT22;13914;48.178;11.716;2022-09-27T10:49:25;12.80;83.40
26164;DHT22;13914;48.178;11.716;2022-09-27T10:52:12;12.70;83.10
26164;DHT22;13914;48.178;11.716;2022-09-27T10:54:41;12.80;82.90
26164;DHT22;13914;48.178;11.716;2022-09-27T10:57:20;12.70;83.20
26164;DHT22;13914;48.178;11.716;2022-09-27T10:59:59;12.70;83.60
26164;DHT22;13914;48.178;11.716;2022-09-27T11:02:36;12.70;83.20
26164;DHT22;13914;48.178;11.716;2022-09-27T11:07:28;12.80;83.90
26164;DHT22;13914;48.178;11.716;2022-09-27T11:09:56;12.80;83.90
26164;DHT22;13914;48.178;11.716;2022-09-27T11:12:28;12.80;83.90
26164;DHT22;13914;48.178;11.716;2022-09-27T11:14:57;12.80;83.90
26164;DHT22;13914;48.178;11.716;2022-09-27T11:17:32;12.90;83.80
26164;DHT22;13914;48.178;11.716;2022-09-27T11:20:13;12.90;84.00
26164;DHT22;13914;48.178;11.716;2022-09-27T11:40:04;13.10;83.40
26164;DHT22;13914;48.178;11.716;2022-09-27T11:45:33;13.10;84.20
26164;DHT22;13914;48.178;11.716;2022-09-27T11:48:12;13.10;83.40
26164;DHT22;13914;48.178;11.716;2022-09-27T11:53:47;13.10;83.10
26164;DHT22;13914;48.178;11.716;2022-09-27T11:56:32;13.10;83.00
26164;DHT22;13914;48.178;11.716;2022-09-27T11:59:32;13.10;82.60
26164;DHT22;13914;48.178;11.716;2022-09-27T12:05:03;13.10;82.80
26164;DHT22;13914;48.178;11.716;2022-09-27T12:10:30;13.10;83.00
26164;DHT22;13914;48.178;11.716;2022-09-27T12:12:57;13.10;82.70
26164;DHT22;13914;48.178;11.716;2022-09-27T12:15:29;13.10;83.10
26164;DHT22;13914;48.178;11.716;2022-09-27T12:18:17;13.10;83.20
26164;DHT22;13914;48.178;11.716;2022-09-27T12:20:49;13.00;83.20
26164;DHT22;13914;48.178;11.716;2022-09-27T12:23:23;13.00;83.40
26164;DHT22;13914;48.178;11.716;2022-09-27T12:25:58;13.00;83.40
26164;DHT22;13914;48.178;11.716;2022-09-27T12:28:47;12.80;83.00
26164;DHT22;13914;48.178;11.716;2022-09-27T12:31:32;12.80;84.40
26164;DHT22;13914;48.178;11.716;2022-09-27T12:37:27;12.80;83.70
26164;DHT22;13914;48.178;11.716;2022-09-27T12:40:05;12.80;83.70
26164;DHT22;13914;48.178;11.716;2022-09-27T12:48:46;12.80;83.80
26164;DHT22;13914;48.178;11.716;2022-09-27T12:51:56;12.80;83.90
26164;DHT22;13914;48.178;11.716;2022-09-27T13:00:19;12.80;84.10
26164;DHT22;13914;48.178;11.716;2022-09-27T13:14:02;12.80;84.50
26164;DHT22;13914;48.178;11.716;2022-09-27T13:16:28;12.70;84.40
26164;DHT22;13914;48.178;11.716;2022-09-27T13:18:56;12.80;84.60
26164;DHT22;13914;48.178;11.716;2022-09-27T13:32:35;12.80;84.40
26164;DHT22;13914;48.178;11.716;2022-09-27T13:35:21;12.80;84.40
26164;DHT22;13914;48.178;11.716;2022-09-27T13:37:57;12.80;84.50
26164;DHT22;13914;48.178;11.716;2022-09-27T13:40:34;12.80;84.50
26164;DHT22;13914;48.178;11.716;2022-09-27T13:54:08;12.80;84.30
26164;DHT22;13914;48.178;11.716;2022-09-27T13:57:53;12.90;84.30
26164;DHT22;13914;48.178;11.716;2022-09-27T14:00:26;12.80;84.20
26164;DHT22;13914;48.178;11.716;2022-09-27T14:08:33;12.80;83.90
26164;DHT22;13914;48.178;11.716;2022-09-27T14:11:03;12.80;83.60
26164;DHT22;13914;48.178;11.716;2022-09-27T14:13:37;12.80;83.40
26164;DHT22;13914;48.178;11.716;2022-09-27T14:16:04;12.80;82.80
26164;DHT22;13914;48.178;11.716;2022-09-27T14:18:32;12.80;83.20
26164;DHT22;13914;48.178;11.716;2022-09-27T14:21:27;12.80;83.40
26164;DHT22;13914;48.178;11.716;2022-09-27T14:24:25;12.80;83.40
26164;DHT22;13914;48.178;11.716;2022-09-27T14:29:56;12.80;83.10
26164;DHT22;13914;48.178;11.716;2022-09-27T14:32:32;12.70;83.00
26164;DHT22;13914;48.178;11.716;2022-09-27T14:35:09;12.80;82.80
26164;DHT22;13914;48.178;11.716;2022-09-27T14:38:00;12.70;83.00
26164;DHT22;13914;48.178;11.716;2022-09-27T14:40:28;12.70;82.70
26164;DHT22;13914;48.178;11.716;2022-09-27T14:42:55;12.70;82.50
26164;DHT22;13914;48.178;11.716;2022-09-27T14:45:36;12.70;82.00
26164;DHT22;13914;48.178;11.716;2022-09-27T14:50:59;12.70;82.30
26164;DHT22;13914;48.178;11.716;2022-09-27T14:53:39;12.70;82.50
26164;DHT22;13914;48.178;11.716;2022-09-27T14:56:21;12.70;82.40
26164;DHT22;13914;48.178;11.716;2022-09-27T14:58:54;12.70;82.70
26164;DHT22;13914;48.178;11.716;2022-09-27T15:01:27;12.70;82.60
26164;DHT22;13914;48.178;11.716;2022-09-27T15:04:01;12.70;82.50
26164;DHT22;13914;48.178;11.716;2022-09-27T15:06:28;12.70;82.20
26164;DHT22;13914;48.178;11.716;2022-09-27T15:08:55;12.60;82.20
26164;DHT22;13914;48.178;11.716;2022-09-27T15:11:21;12.60;82.20
26164;DHT22;13914;48.178;11.716;2022-09-27T15:13:50;12.60;82.10
26164;DHT22;13914;48.178;11.716;2022-09-27T15:16:20;12.60;82.00
26164;DHT22;13914;48.178;11.716;2022-09-27T15:18:48;12.60;81.90
26164;DHT22;13914;48.178;11.716;2022-09-27T15:21:30;12.50;82.00
26164;DHT22;13914;48.178;11.716;2022-09-27T15:23:59;12.50;82.00
26164;DHT22;13914;48.178;11.716;2022-09-27T15:26:36;12.50;82.00
26164;DHT22;13914;48.178;11.716;2022-09-27T15:29:05;12.50;82.10
26164;DHT22;13914;48.178;11.716;2022-09-27T15:31:32;12.50;82.00
26164;DHT22;13914;48.178;11.716;2022-09-27T15:33:59;12.40;82.00
26164;DHT22;13914;48.178;11.716;2022-09-27T15:36:48;12.40;82.10
26164;DHT22;13914;48.178;11.716;2022-09-27T15:39:31;12.40;82.10
26164;DHT22;13914;48.178;11.716;2022-09-27T15:49:57;12.30;82.20
26164;DHT22;13914;48.178;11.716;2022-09-27T15:52:40;12.30;82.20
26164;DHT22;13914;48.178;11.716;2022-09-27T15:55:18;12.30;82.30
26164;DHT22;13914;48.178;11.716;2022-09-27T15:57:47;12.30;82.30
26164;DHT22;13914;48.178;11.716;2022-09-27T16:00:18;12.20;82.40
26164;DHT22;13914;48.178;11.716;2022-09-27T16:02:45;12.20;81.60
26164;DHT22;13914;48.178;11.716;2022-09-27T16:05:11;12.20;82.20
26164;DHT22;13914;48.178;11.716;2022-09-27T16:07:37;12.20;82.20
26164;DHT22;13914;48.178;11.716;2022-09-27T16:10:34;12.20;82.60
26164;DHT22;13914;48.178;11.716;2022-09-27T16:13:01;12.10;82.50
26164;DHT22;13914;48.178;11.716;2022-09-27T16:15:27;12.10;82.40
26164;DHT22;13914;48.178;11.716;2022-09-27T16:17:53;12.10;82.60
26164;DHT22;13914;48.178;11.716;2022-09-27T16:20:25;12.10;82.80
26164;DHT22;13914;48.178;11.716;2022-09-27T16:22:55;12.10;83.00
26164;DHT22;13914;48.178;11.716;2022-09-27T16:25:21;12.00;83.10
26164;DHT22;13914;48.178;11.716;2022-09-27T16:27:48;12.00;83.10
26164;DHT22;13914;48.178;11.716;2022-09-27T16:30:15;12.00;83.20
26164;DHT22;13914;48.178;11.716;2022-09-27T16:32:46;12.00;83.20
26164;DHT22;13914;48.178;11.716;2022-09-27T16:35:14;12.00;83.20
26164;DHT22;13914;48.178;11.716;2022-09-27T16:37:41;12.00;83.30
26164;DHT22;13914;48.178;11.716;2022-09-27T16:40:08;11.90;83.40
26164;DHT22;13914;48.178;11.716;2022-09-27T16:42:36;11.90;83.40
26164;DHT22;13914;48.178;11.716;2022-09-27T16:45:03;11.90;83.40
26164;DHT22;13914;48.178;11.716;2022-09-27T16:47:30;11.90;83.40
26164;DHT22;13914;48.178;11.716;2022-09-27T16:49:57;11.90;83.40
26164;DHT22;13914;48.178;11.716;2022-09-27T16:52:41;11.90;83.50
26164;DHT22;13914;48.178;11.716;2022-09-27T16:55:08;11.80;83.40
26164;DHT22;13914;48.178;11.716;2022-09-27T16:57:34;11.80;83.50
26164;DHT22;13914;48.178;11.716;2022-09-27T17:00:00;11.80;83.50
26164;DHT22;13914;48.178;11.716;2022-09-27T17:02:26;11.80;83.60
26164;DHT22;13914;48.178;11.716;2022-09-27T17:04:52;11.70;83.60
26164;DHT22;13914;48.178;11.716;2022-09-27T17:07:19;11.70;83.60
26164;DHT22;13914;48.178;11.716;2022-09-27T17:09:45;11.70;83.60
26164;DHT22;13914;48.178;11.716;2022-09-27T17:12:12;11.70;83.60
26164;DHT22;13914;48.178;11.716;2022-09-27T17:14:38;11.60;83.60
26164;DHT22;13914;48.178;11.716;2022-09-27T17:17:04;11.60;83.60
26164;DHT22;13914;48.178;11.716;2022-09-27T17:19:31;11.50;83.70
26164;DHT22;13914;48.178;11.716;2022-09-27T17:21:57;11.50;83.70
26164;DHT22;13914;48.178;11.716;2022-09-27T17:24:23;11.50;83.90
26164;DHT22;13914;48.178;11.716;2022-09-27T17:26:49;11.40;84.00
26164;DHT22;13914;48.178;11.716;2022-09-27T17:29:16;11.40;84.20
26164;DHT22;13914;48.178;11.716;2022-09-27T17:31:43;11.40;84.30
26164;DHT22;13914;48.178;11.716;2022-09-27T17:34:10;11.30;84.50
26164;DHT22;13914;48.178;11.716;2022-09-27T17:36:39;11.30;84.50
26164;DHT22;13914;48.178;11.716;2022-09-27T17:39:10;11.30;85.40
26164;DHT22;13914;48.178;11.716;2022-09-27T17:41:37;11.30;84.50
26164;DHT22;13914;48.178;11.716;2022-09-27T17:44:03;11.20;84.40
26164;DHT22;13914;48.178;11.716;2022-09-27T17:46:30;11.20;84.50
26164;DHT22;13914;48.178;11.716;2022-09-27T17:48:59;11.20;84.60
26164;DHT22;13914;48.178;11.716;2022-09-27T17:51:49;11.20;84.70
26164;DHT22;13914;48.178;11.716;2022-09-27T17:54:17;11.20;84.80
26164;DHT22;13914;48.178;11.716;2022-09-27T17:56:45;11.20;84.90
26164;DHT22;13914;48.178;11.716;2022-09-27T17:59:13;11.10;84.80
26164;DHT22;13914;48.178;11.716;2022-09-27T18:01:41;11.10;85.00
26164;DHT22;13914;48.178;11.716;2022-09-27T18:04:10;11.00;85.00
26164;DHT22;13914;48.178;11.716;2022-09-27T18:06:38;11.10;85.10
26164;DHT22;13914;48.178;11.716;2022-09-27T18:09:09;11.00;85.10
26164;DHT22;13914;48.178;11.716;2022-09-27T18:11:36;10.90;85.00
26164;DHT22;13914;48.178;11.716;2022-09-27T18:14:03;10.90;85.20
26164;DHT22;13914;48.178;11.716;2022-09-27T18:16:32;10.90;85.40
26164;DHT22;13914;48.178;11.716;2022-09-27T18:19:05;10.90;85.40
26164;DHT22;13914;48.178;11.716;2022-09-27T18:21:32;10.80;85.40
26164;DHT22;13914;48.178;11.716;2022-09-27T18:24:00;10.80;85.40
26164;DHT22;13914;48.178;11.716;2022-09-27T18:26:31;10.80;85.40
26164;DHT22;13914;48.178;11.716;2022-09-27T18:29:06;10.80;85.50
26164;DHT22;13914;48.178;11.716;2022-09-27T18:31:33;10.80;85.50
26164;DHT22;13914;48.178;11.716;2022-09-27T18:34:00;10.80;85.70
26164;DHT22;13914;48.178;11.716;2022-09-27T18:36:27;10.70;85.60
26164;DHT22;13914;48.178;11.716;2022-09-27T18:38:59;10.70;85.60